Time;durP1;ratioP1;P1;durP2;ratioP2;P2;SDS_P1;SDS_P2;PMS_P1;PMS_P2;Temp;Humidity;BMP_temperature;BMP_pressure;BME280_temperature;BME280_humidity;BME280_pressure;Samples;Min_cycle;Max_cycle;Signal;HPM_P1;HPM_P2
2021/01/15 00:01:21;;;;;;;16.33;9.70;;;1.60;99.90;;;2.30;71.15;101239.28;5057964;28;20100;-79
2021/01/15 00:03:47;;;;;;;17.40;9.98;;;1.60;99.90;;;2.29;70.55;101234.88;5056764;28;20123;-78
2021/01/15 00:06:25;;;;;;;20.17;9.85;;;1.60;99.90;;;2.33;69.50;101235.97;5038705;28;20041;-81
2021/01/15 00:08:53;;;;;;;17.77;9.60;;;1.60;99.90;;;2.36;69.75;101238.13;5055084;28;20111;-82
2021/01/15 00:11:30;;;;;;;21.90;11.00;;;1.60;99.90;;;2.31;69.76;101240.94;5055254;28;20017;-81
2021/01/15 00:13:58;;;;;;;18.75;9.50;;;1.60;99.90;;;2.26;69.84;101233.53;5055020;28;20029;-79
2021/01/15 00:16:33;;;;;;;18.42;9.90;;;1.60;99.90;;;2.08;70.39;101240.59;5054156;28;20029;-80
2021/01/15 00:19:02;;;;;;;16.48;9.40;;;1.50;99.90;;;2.20;70.07;101244.88;5053934;28;20031;-79
2021/01/15 00:21:35;;;;;;;21.33;10.68;;;1.50;99.90;;;2.25;69.59;101239.34;5054108;28;20071;-80
2021/01/15 00:24:05;;;;;;;16.15;8.40;;;1.50;99.90;;;2.17;69.88;101238.03;5053846;28;20063;-78
2021/01/15 00:26:34;;;;;;;16.50;8.38;;;1.50;99.90;;;2.18;69.63;101236.94;5053716;28;20449;-79
2021/01/15 00:29:00;;;;;;;15.07;7.97;;;1.50;99.90;;;2.12;69.69;101238.03;5036194;28;20032;-78
2021/01/15 00:31:36;;;;;;;19.40;10.73;;;1.50;99.90;;;2.17;70.14;101238.03;5054048;28;20055;-78
2021/01/15 00:34:06;;;;;;;21.80;10.32;;;1.40;99.90;;;2.18;69.56;101242.44;5053243;28;20119;-78
2021/01/15 00:36:32;;;;;;;20.00;10.20;;;1.50;99.90;;;2.19;70.11;101241.31;5035604;28;20035;-81
2021/01/15 00:38:59;;;;;;;22.13;9.55;;;1.50;99.90;;;2.17;70.17;101240.78;5053256;28;20074;-80
2021/01/15 00:41:25;;;;;;;19.73;8.82;;;1.40;99.90;;;2.23;69.40;101247.91;5035478;28;20040;-80
2021/01/15 00:43:51;;;;;;;16.42;7.85;;;1.50;99.90;;;2.20;69.84;101244.88;5053766;28;20033;-79
2021/01/15 00:46:32;;;;;;;21.08;10.07;;;1.50;99.90;;;2.21;70.20;101246.53;5035675;28;20122;-79
2021/01/15 00:49:08;;;;;;;19.50;9.02;;;1.40;99.90;;;2.25;70.12;101240.16;5035656;28;20568;-79
2021/01/15 00:51:36;;;;;;;26.02;9.68;;;1.40;99.90;;;2.21;69.55;101243.78;5053240;28;20048;-77
2021/01/15 00:54:05;;;;;;;15.60;8.40;;;1.50;99.90;;;2.24;69.48;101245.97;5034941;28;20045;-81
2021/01/15 00:56:32;;;;;;;18.35;8.35;;;1.40;99.90;;;2.20;69.80;101237.44;5034911;28;20040;-79
2021/01/15 00:58:58;;;;;;;24.17;10.50;;;1.40;99.90;;;2.17;70.19;101242.72;5053267;28;20032;-79
2021/01/15 01:01:25;;;;;;;21.20;9.65;;;1.40;99.90;;;2.13;70.01;101243.28;5053380;28;20437;-80
2021/01/15 01:03:52;;;;;;;33.50;14.65;;;1.40;99.90;;;2.09;70.26;101236.69;5053400;28;20496;-80
2021/01/15 01:06:22;;;;;;;19.55;9.40;;;1.30;99.90;;;2.08;70.31;101246.09;5035332;28;20036;-80
2021/01/15 01:08:50;;;;;;;13.43;8.20;;;1.30;99.90;;;2.11;70.63;101250.19;5035524;28;20033;-78
2021/01/15 01:11:24;;;;;;;18.05;8.95;;;1.30;99.90;;;2.10;70.41;101249.38;5035663;28;20036;-78
2021/01/15 01:13:55;;;;;;;55.88;18.00;;;1.30;99.90;;;2.08;70.19;101264.56;5053377;28;20033;-79
2021/01/15 01:16:24;;;;;;;30.25;11.88;;;1.30;99.90;;;2.05;69.99;101260.44;5036024;28;20036;-79
2021/01/15 01:18:51;;;;;;;14.93;8.15;;;1.30;99.90;;;2.06;69.57;101273.09;5035057;28;20119;-82
2021/01/15 01:21:17;;;;;;;19.83;9.10;;;1.30;99.90;;;1.95;69.42;101273.47;5035166;28;20033;-79
2021/01/15 01:23:44;;;;;;;16.83;8.80;;;1.30;99.90;;;2.04;68.67;101271.75;5054174;28;20055;-79
2021/01/15 01:26:11;;;;;;;28.35;10.57;;;1.30;99.90;;;2.09;68.81;101274.44;5056715;28;20064;-81
2021/01/15 01:28:37;;;;;;;13.50;7.85;;;1.30;99.90;;;2.12;68.88;101279.38;5039345;28;20049;-81
2021/01/15 01:31:04;;;;;;;48.38;16.30;;;1.30;99.90;;;2.08;69.39;101275.56;5039266;28;20029;-80
2021/01/15 01:33:31;;;;;;;20.42;10.23;;;1.30;99.90;;;2.08;68.93;101286.59;5057313;28;20397;-81
2021/01/15 01:35:56;;;;;;;18.77;9.48;;;1.30;99.90;;;2.01;69.44;101284.16;5038796;28;20083;-78
2021/01/15 01:38:22;;;;;;;25.77;9.35;;;1.30;99.90;;;1.99;70.17;101288.31;5039074;28;20106;-79
2021/01/15 01:40:48;;;;;;;20.17;9.65;;;1.20;99.90;;;2.01;69.84;101292.44;5039399;28;20119;-80
2021/01/15 01:43:14;;;;;;;29.95;11.70;;;1.20;99.90;;;1.97;69.93;101296.03;5056980;28;20032;-79
2021/01/15 01:45:42;;;;;;;18.02;9.55;;;1.20;99.90;;;1.99;69.88;101297.38;5056741;28;20149;-79
2021/01/15 01:48:10;;;;;;;42.65;15.98;;;1.20;99.90;;;2.00;69.83;101303.72;5040999;28;20029;-81
2021/01/15 01:50:41;;;;;;;21.05;10.70;;;1.20;99.90;;;2.01;70.06;101299.88;5048850;28;20025;-81
2021/01/15 01:53:13;;;;;;;18.50;9.10;;;1.20;99.90;;;1.99;70.00;101302.09;5039603;28;20041;-77
2021/01/15 01:55:42;;;;;;;13.98;8.27;;;1.20;99.90;;;1.96;70.38;101306.22;5038814;28;20116;-78
2021/01/15 01:58:10;;;;;;;24.10;12.23;;;1.20;99.90;;;1.95;70.18;101307.34;5038640;28;20029;-79
2021/01/15 02:00:40;;;;;;;23.95;11.02;;;1.20;99.90;;;2.02;69.65;101305.06;5038410;28;20040;-79
2021/01/15 02:03:07;;;;;;;13.77;8.88;;;1.20;99.90;;;1.99;69.73;101308.41;5056195;28;20039;-81
2021/01/15 02:05:33;;;;;;;20.17;10.30;;;1.30;99.90;;;2.01;70.98;101311.72;5056247;28;20037;-78
2021/01/15 02:07:59;;;;;;;21.50;10.57;;;1.20;99.90;;;1.98;71.72;101314.22;5038754;28;20039;-80
2021/01/15 02:11:13;;;;;;;18.15;10.60;;;1.30;99.90;;;1.98;72.50;101311.47;5039034;28;20144;-79
2021/01/15 02:14:23;;;;;;;18.88;10.15;;;1.20;99.90;;;1.96;73.72;101317.25;5038522;28;20043;-80
2021/01/15 02:16:54;;;;;;;20.80;11.25;;;1.30;99.90;;;2.00;74.09;101317.50;5038432;28;20029;-78
2021/01/15 02:20:07;;;;;;;19.02;10.40;;;1.30;99.90;;;2.06;75.37;101322.69;5038624;28;20489;-81
2021/01/15 02:22:58;;;;;;;17.75;11.07;;;1.30;99.90;;;2.08;75.93;101317.75;5056183;28;20029;-79
2021/01/15 02:26:49;;;;;;;21.08;11.95;;;1.30;99.90;;;1.98;77.57;101325.25;5055481;28;20426;-82
2021/01/15 02:29:19;;;;;;;26.73;16.00;;;1.30;99.90;;;1.93;78.88;101328.81;4994462;28;20066;-78
2021/01/15 02:31:45;;;;;;;23.42;13.55;;;1.30;99.90;;;2.02;79.01;101334.59;5038190;28;20036;-80
2021/01/15 02:34:58;;;;;;;24.98;12.40;;;1.30;99.90;;;2.06;79.50;101338.41;5038473;28;20033;-79
2021/01/15 02:37:41;;;;;;;26.77;13.95;;;1.30;99.90;;;2.02;79.89;101332.63;5037422;28;20029;-81
2021/01/15 02:40:22;;;;;;;25.95;13.68;;;1.30;99.90;;;2.07;80.05;101334.53;5055852;28;20473;-78
2021/01/15 02:42:52;;;;;;;26.42;13.68;;;1.30;99.90;;;2.04;80.65;101335.94;5037710;28;20087;-79
2021/01/15 02:45:19;;;;;;;22.35;14.05;;;1.20;99.90;;;2.03;81.05;101333.47;5037828;28;20079;-81
2021/01/15 02:47:54;;;;;;;26.63;14.73;;;1.20;99.90;;;1.99;81.75;101332.41;5056014;28;20036;-79
2021/01/15 02:50:24;;;;;;;23.08;13.95;;;1.20;99.90;;;1.95;81.88;101340.41;5055541;28;20029;-81
2021/01/15 02:52:51;;;;;;;25.77;14.32;;;1.20;99.90;;;1.93;81.98;101344.53;5055444;28;20043;-83
2021/01/15 02:55:18;;;;;;;26.60;14.15;;;1.10;99.90;;;1.97;81.70;101346.44;5060073;28;20423;-78
2021/01/15 02:57:44;;;;;;;24.52;12.75;;;1.20;99.90;;;2.03;81.37;101355.50;5058599;28;20029;-80
2021/01/15 03:00:19;;;;;;;28.75;16.60;;;1.20;99.90;;;1.96;81.44;101366.00;5040836;28;20098;-79
2021/01/15 03:03:12;;;;;;;24.37;13.97;;;1.20;99.90;;;1.96;81.92;101366.84;5057949;28;20064;-79
2021/01/15 03:06:01;;;;;;;26.35;14.27;;;1.10;99.90;;;1.93;82.38;101372.09;5042280;28;20037;-80
2021/01/15 03:08:29;;;;;;;27.92;15.32;;;1.20;99.90;;;1.82;82.52;101371.31;5057233;28;20033;-79
2021/01/15 03:11:01;;;;;;;30.00;16.77;;;1.10;99.90;;;1.86;82.56;101382.59;5038640;28;20495;-79
2021/01/15 03:13:32;;;;;;;28.05;14.68;;;1.10;99.90;;;1.88;83.00;101383.13;5055840;28;20208;-80
2021/01/15 03:16:04;;;;;;;25.42;14.75;;;1.10;99.90;;;1.85;82.45;101391.97;5055293;28;20037;-80
2021/01/15 03:18:34;;;;;;;28.70;15.40;;;1.10;99.90;;;1.88;82.67;101389.47;5055289;28;20029;-79
2021/01/15 03:21:02;;;;;;;29.58;15.40;;;1.10;99.90;;;1.73;83.28;101392.31;5037868;28;20492;-82
2021/01/15 03:23:35;;;;;;;28.23;15.60;;;1.10;99.90;;;1.77;83.49;101406.31;5037425;28;20037;-80
2021/01/15 03:26:02;;;;;;;27.95;15.90;;;1.10;99.90;;;1.74;83.94;101399.44;5037198;28;20056;-79
2021/01/15 03:28:27;;;;;;;28.85;17.98;;;1.10;99.90;;;1.81;83.57;101407.41;5036877;28;20186;-78
2021/01/15 03:30:53;;;;;;;29.55;17.20;;;1.10;99.90;;;1.82;83.59;101407.13;5054552;28;20111;-82
2021/01/15 03:33:20;;;;;;;31.77;17.23;;;1.10;99.90;;;1.77;84.02;101403.56;5054314;28;20043;-80
2021/01/15 03:35:46;;;;;;;32.88;17.85;;;1.10;99.90;;;1.79;84.02;101398.59;5054310;28;20473;-79
2021/01/15 03:38:13;;;;;;;35.63;16.70;;;1.10;99.90;;;1.84;83.80;101401.31;5054118;28;20116;-79
2021/01/15 03:40:42;;;;;;;34.83;18.85;;;1.10;99.90;;;1.82;83.85;101404.38;5036547;28;20431;-81
2021/01/15 03:43:17;;;;;;;32.38;18.10;;;1.10;99.90;;;1.75;83.97;101409.34;5054855;28;20341;-81
2021/01/15 03:45:46;;;;;;;42.08;21.08;;;1.00;99.90;;;1.75;83.88;101411.28;5036781;28;20036;-79
2021/01/15 03:48:15;;;;;;;36.90;20.55;;;1.10;99.90;;;1.70;84.36;101420.41;5054355;28;20036;-79
2021/01/15 03:50:43;;;;;;;36.65;18.92;;;1.00;99.90;;;1.67;84.61;101426.44;5036136;28;20025;-79
2021/01/15 03:53:12;;;;;;;35.28;19.38;;;1.00;99.90;;;1.73;84.21;101419.84;5036166;28;20025;-79
2021/01/15 03:55:37;;;;;;;36.67;19.90;;;1.00;99.90;;;1.72;84.10;101431.97;5036177;28;20025;-81
2021/01/15 03:58:03;;;;;;;33.78;19.10;;;1.00;99.90;;;1.63;85.06;101428.13;5036284;28;20234;-79
2021/01/15 04:00:29;;;;;;;38.28;19.25;;;0.90;99.90;;;1.70;84.40;101433.34;5037413;28;20094;-81
2021/01/15 04:02:55;;;;;;;35.20;18.55;;;0.90;99.90;;;1.57;84.84;101424.53;5054640;28;20024;-81
2021/01/15 04:05:21;;;;;;;37.50;18.73;;;0.90;99.90;;;1.58;84.65;101425.38;5053655;28;20025;-79
2021/01/15 04:07:47;;;;;;;37.20;19.25;;;0.90;99.90;;;1.68;84.50;101425.34;5054022;28;20060;-80
2021/01/15 04:10:17;;;;;;;39.38;20.10;;;1.00;99.90;;;1.72;84.26;101422.88;5053697;28;20032;-81
2021/01/15 04:12:45;;;;;;;35.92;18.83;;;0.90;99.90;;;1.70;84.44;101428.66;5044797;28;20033;-80
2021/01/15 04:15:15;;;;;;;34.10;19.70;;;0.90;99.90;;;1.67;84.65;101426.44;5037127;28;20025;-80
2021/01/15 04:17:42;;;;;;;35.33;18.88;;;0.90;99.90;;;1.63;84.75;101430.06;5035797;28;20033;-83
2021/01/15 04:20:12;;;;;;;36.55;18.60;;;0.90;99.90;;;1.53;85.28;101437.25;5035626;28;20025;-82
2021/01/15 04:22:46;;;;;;;35.60;19.33;;;0.90;99.90;;;1.64;84.48;101432.50;5053581;28;20033;-80
2021/01/15 04:25:14;;;;;;;36.65;19.50;;;0.90;99.90;;;1.56;84.44;101444.13;5053924;28;20068;-79
2021/01/15 04:27:41;;;;;;;37.70;19.63;;;0.90;99.90;;;1.48;84.93;101436.41;5036313;28;20040;-79
2021/01/15 04:30:12;;;;;;;38.85;18.98;;;0.80;99.90;;;1.49;84.85;101449.09;5035732;28;20114;-79
2021/01/15 04:32:48;;;;;;;37.33;20.15;;;0.80;99.90;;;1.49;85.01;101446.31;5035947;28;20032;-79
2021/01/15 04:35:16;;;;;;;;;;;0.80;99.90;;;1.54;84.70;101460.09;5036540;28;20029;-80
2021/01/15 04:37:43;;;;;;;35.90;18.13;;;0.80;99.90;;;1.49;84.63;101452.66;5053906;28;19926;-80
2021/01/15 04:40:10;;;;;;;40.92;19.55;;;0.80;99.90;;;1.48;84.99;101459.25;5036077;28;20091;-79
2021/01/15 04:42:43;;;;;;;45.05;19.42;;;0.80;99.90;;;1.46;85.09;101455.97;5036082;28;20025;-79
2021/01/15 04:45:16;;;;;;;40.22;20.42;;;0.70;99.90;;;1.42;85.17;101467.81;5054055;28;20028;-79
2021/01/15 04:47:47;;;;;;;40.83;20.45;;;0.70;99.90;;;1.39;85.36;101463.69;5035782;28;20029;-81
2021/01/15 04:50:17;;;;;;;35.38;19.65;;;0.70;99.90;;;1.44;84.96;101463.69;5053155;28;20028;-79
2021/01/15 04:52:53;;;;;;;40.80;20.38;;;0.70;99.90;;;1.44;85.20;101463.69;5035383;28;20067;-81
2021/01/15 04:55:26;;;;;;;36.58;19.92;;;0.70;99.90;;;1.45;85.17;101457.06;5053587;28;20052;-81
2021/01/15 04:57:55;;;;;;;42.45;21.80;;;0.70;99.90;;;1.43;85.55;101466.72;5035430;28;20120;-80
2021/01/15 05:00:26;;;;;;;40.25;20.23;;;0.70;99.90;;;1.48;85.14;101464.78;5035028;28;20448;-79
2021/01/15 05:02:53;;;;;;;37.40;20.40;;;0.70;99.90;;;1.43;85.26;101466.72;5053171;28;20036;-82
2021/01/15 05:05:26;;;;;;;34.85;19.60;;;0.70;99.90;;;1.45;85.38;101464.50;5053333;28;20489;-82
2021/01/15 05:08:26;;;;;;;39.15;21.33;;;0.70;99.90;;;1.49;84.87;101471.09;5053530;28;20078;-81
2021/01/15 05:10:55;;;;;;;39.20;20.10;;;0.70;99.90;;;1.31;85.36;101469.78;5053342;28;20036;-82
2021/01/15 05:13:22;;;;;;;35.25;19.67;;;0.60;99.90;;;1.29;85.90;101479.38;5053368;28;20576;-79
2021/01/15 05:15:53;;;;;;;44.40;21.40;;;0.60;99.90;;;1.32;85.92;101476.91;5035241;28;20036;-79
2021/01/15 05:18:20;;;;;;;41.20;21.15;;;0.60;99.90;;;1.20;86.61;101479.13;5053123;28;20035;-79
2021/01/15 05:20:48;;;;;;;38.67;20.20;;;0.60;99.90;;;1.18;86.25;101483.25;5053516;28;20071;-80
2021/01/15 05:23:16;;;;;;;36.85;20.55;;;0.60;99.90;;;1.30;86.10;101500.31;5053707;28;20086;-80
2021/01/15 05:25:47;;;;;;;37.65;20.55;;;0.60;99.90;;;1.36;85.73;101497.28;5053372;28;20488;-79
2021/01/15 05:28:18;;;;;;;38.72;20.35;;;0.50;99.90;;;1.37;85.90;101496.19;5035144;28;20066;-80
2021/01/15 05:30:57;;;;;;;40.00;20.00;;;0.60;99.90;;;1.27;85.83;101504.44;5053778;28;20061;-82
2021/01/15 05:33:23;;;;;;;35.20;19.85;;;0.60;99.90;;;1.27;85.95;101506.38;5055225;28;20033;-82
2021/01/15 05:35:52;;;;;;;38.50;20.20;;;0.60;99.90;;;1.21;85.87;101510.22;5056861;28;20092;-82
2021/01/15 05:38:22;;;;;;;36.60;20.65;;;0.60;99.90;;;1.22;85.72;101520.13;5034596;28;20037;-82
2021/01/15 05:40:55;;;;;;;40.25;21.63;;;0.60;99.90;;;1.14;86.25;101513.25;5052922;28;20036;-80
2021/01/15 05:43:33;;;;;;;37.38;20.00;;;0.60;99.90;;;1.21;86.27;101522.06;5052697;28;20031;-82
2021/01/15 05:46:21;;;;;;;41.50;22.55;;;0.50;99.90;;;1.19;85.37;101517.94;5034768;28;20029;-80
2021/01/15 05:48:54;;;;;;;36.13;19.40;;;0.50;99.90;;;1.17;85.60;101525.63;5034600;28;20037;-81
2021/01/15 05:51:34;;;;;;;39.20;20.27;;;0.50;99.90;;;1.17;85.93;101529.19;5052426;28;20032;-80
2021/01/15 05:54:04;;;;;;;36.90;19.35;;;0.50;99.90;;;1.11;85.82;101527.56;5034902;28;20483;-83
2021/01/15 05:56:46;;;;;;;38.58;19.40;;;0.50;99.90;;;1.09;85.85;101532.50;5034321;28;20121;-81
2021/01/15 05:59:18;;;;;;;37.42;20.00;;;0.50;99.90;;;1.10;85.68;101533.31;5034290;28;20450;-81
2021/01/15 06:02:13;;;;;;;36.97;18.88;;;0.40;99.90;;;1.09;86.06;101535.25;5053562;28;20061;-83
2021/01/15 06:04:40;;;;;;;36.60;18.85;;;0.40;99.90;;;1.07;86.09;101531.94;5021256;28;20068;-82
2021/01/15 06:07:08;;;;;;;44.35;21.08;;;0.40;99.90;;;1.06;86.02;101535.78;5034667;28;20037;-82
2021/01/15 06:09:38;;;;;;;40.75;20.08;;;0.40;99.90;;;0.99;86.11;101549.00;5052031;28;20045;-82
2021/01/15 06:12:11;;;;;;;39.50;19.45;;;0.40;99.90;;;1.01;86.30;101539.38;5037479;28;20063;-83
2021/01/15 06:14:57;;;;;;;41.15;21.73;;;0.40;99.90;;;1.05;86.12;101542.41;5055834;28;20090;-82
2021/01/15 06:17:25;;;;;;;39.03;19.98;;;0.40;99.90;;;1.07;86.11;101545.69;5037546;28;20040;-81
2021/01/15 06:19:54;;;;;;;41.03;22.02;;;0.40;99.90;;;1.08;86.02;101546.53;5037606;28;20055;-83
2021/01/15 06:22:44;;;;;;;40.78;21.00;;;0.40;99.90;;;1.11;86.13;101545.97;5038033;28;20025;-81
2021/01/15 06:25:32;;;;;;;43.47;22.05;;;0.40;99.90;;;1.11;86.64;101545.97;5055716;28;20029;-82
2021/01/15 06:28:02;;;;;;;54.42;24.77;;;0.40;99.90;;;1.13;86.18;101552.03;5037762;28;20025;-82
2021/01/15 06:30:35;;;;;;;45.58;22.73;;;0.40;99.90;;;1.17;85.97;101548.47;5038018;28;20033;-82
2021/01/15 06:33:28;;;;;;;51.85;24.27;;;0.40;99.90;;;1.14;85.98;101554.53;5055820;28;20110;-83
2021/01/15 06:35:54;;;;;;;40.92;21.00;;;0.40;99.90;;;1.11;85.95;101552.31;5035237;28;20036;-82
2021/01/15 06:38:31;;;;;;;46.47;22.75;;;0.40;99.90;;;1.07;86.20;101556.69;5070025;28;20028;-79
2021/01/15 06:40:59;;;;;;;40.60;21.60;;;0.40;99.90;;;1.14;85.90;101551.75;5068009;28;20029;-82
2021/01/15 06:43:34;;;;;;;42.63;21.05;;;0.40;99.90;;;1.19;85.67;101551.75;5038657;28;20092;-82
2021/01/15 06:46:06;;;;;;;42.78;20.73;;;0.50;99.90;;;1.12;86.05;101559.47;5038209;28;20537;-81
2021/01/15 06:48:39;;;;;;;41.22;21.00;;;0.50;99.90;;;1.18;85.89;101557.56;5037694;28;20032;-81
2021/01/15 06:51:08;;;;;;;51.65;23.25;;;0.50;99.90;;;1.19;85.88;101560.00;5038455;28;20484;-82
2021/01/15 06:53:38;;;;;;;43.60;21.33;;;0.50;99.90;;;1.22;85.88;101564.16;5056238;28;20107;-82
2021/01/15 06:56:07;;;;;;;42.83;21.98;;;0.50;99.90;;;1.20;86.25;101567.19;5039500;28;20111;-82
2021/01/15 06:58:43;;;;;;;43.63;21.38;;;0.50;99.90;;;1.21;86.07;101573.50;5056415;28;20029;-81
2021/01/15 07:01:37;;;;;;;41.63;21.70;;;0.50;99.90;;;1.23;85.81;101568.56;5056983;28;20517;-82
2021/01/15 07:04:29;;;;;;;41.45;22.13;;;0.50;99.90;;;1.26;85.87;101571.59;5057326;28;20396;-80
2021/01/15 07:07:13;;;;;;;43.33;21.13;;;0.50;99.90;;;1.23;85.90;101577.63;5056710;28;20079;-79
2021/01/15 07:09:46;;;;;;;39.28;20.98;;;0.50;99.90;;;1.23;85.89;101580.38;5056661;28;20040;-83
2021/01/15 07:12:22;;;;;;;41.38;20.48;;;0.50;99.90;;;1.26;85.60;101577.09;5038950;28;20432;-80
2021/01/15 07:14:51;;;;;;;45.05;22.35;;;0.50;99.90;;;1.26;85.90;101582.59;5057680;28;20029;-82
2021/01/15 07:17:36;;;;;;;43.65;21.60;;;0.50;99.90;;;1.27;85.90;101581.50;5038558;28;20033;-83
2021/01/15 07:20:17;;;;;;;47.15;24.00;;;0.50;99.90;;;1.26;85.72;101585.34;5036720;28;20106;-82
2021/01/15 07:23:00;;;;;;;44.90;21.77;;;0.50;99.90;;;1.28;85.68;101587.84;5017416;28;20044;-79
2021/01/15 07:25:27;;;;;;;39.90;21.15;;;0.50;99.90;;;1.26;85.92;101596.34;5018074;28;20026;-84
2021/01/15 07:27:54;;;;;;;45.58;22.48;;;0.50;99.90;;;1.29;85.97;101606.81;5037452;28;20493;-82
2021/01/15 07:30:29;;;;;;;40.40;21.90;;;0.50;99.90;;;1.27;86.09;101603.53;5018996;28;20120;-84
2021/01/15 07:33:04;;;;;;;43.22;21.40;;;0.50;99.90;;;1.25;86.24;101610.41;5036788;28;20037;-83
2021/01/15 07:35:38;;;;;;;42.30;20.73;;;0.50;99.90;;;1.24;86.13;101615.06;5018529;28;20045;-80
2021/01/15 07:38:16;;;;;;;42.30;20.52;;;0.50;99.90;;;1.25;86.51;101618.66;5018452;28;20154;-83
2021/01/15 07:40:43;;;;;;;41.15;22.27;;;0.50;99.90;;;1.25;86.38;101615.91;5017925;28;20037;-81
2021/01/15 07:43:35;;;;;;;41.60;21.35;;;0.50;99.90;;;1.24;86.77;101626.09;5018577;28;20029;-83
2021/01/15 07:46:04;;;;;;;43.85;22.85;;;0.50;99.90;;;1.29;86.60;101630.75;5017387;28;20045;-83
2021/01/15 07:48:30;;;;;;;41.90;21.10;;;0.60;99.90;;;1.26;86.48;101631.31;5018716;28;20029;-84
2021/01/15 07:50:57;;;;;;;44.17;22.25;;;0.50;99.90;;;1.28;86.71;101635.47;5035539;28;20100;-81
2021/01/15 07:53:43;;;;;;;42.35;21.35;;;0.50;99.90;;;1.28;86.57;101649.22;5018372;28;20040;-84
2021/01/15 07:56:12;;;;;;;48.63;21.55;;;0.50;99.90;;;1.32;86.30;101646.72;5017996;28;20037;-80
2021/01/15 07:58:37;;;;;;;41.40;22.77;;;0.60;99.90;;;1.33;86.57;101642.88;5018180;28;20508;-84
2021/01/15 08:01:17;;;;;;;48.47;22.75;;;0.60;99.90;;;1.30;86.80;101652.50;5018359;28;20026;-84
2021/01/15 08:03:54;;;;;;;41.47;21.95;;;0.50;99.90;;;1.36;86.29;101648.66;5018063;28;20029;-83
2021/01/15 08:06:24;;;;;;;46.15;20.40;;;0.60;99.90;;;1.37;86.45;101649.50;5021469;28;20108;-84
2021/01/15 08:09:08;;;;;;;45.63;23.08;;;0.60;99.90;;;1.38;86.07;101656.66;5020272;28;20072;-85
2021/01/15 08:11:37;;;;;;;46.83;23.50;;;0.60;99.90;;;1.44;86.22;101656.41;5017621;28;20053;-81
2021/01/15 08:14:23;;;;;;;52.35;22.88;;;0.60;99.90;;;1.47;86.11;101660.53;5017078;28;20162;-82
2021/01/15 08:16:50;;;;;;;44.78;23.30;;;0.60;99.90;;;1.45;86.24;101668.22;5018326;28;20025;-84
2021/01/15 08:19:22;;;;;;;46.85;23.02;;;0.70;99.90;;;1.50;86.05;101663.56;5019237;28;20037;-83
2021/01/15 08:21:50;;;;;;;40.50;20.20;;;0.70;99.90;;;1.50;86.00;101674.59;5017626;28;20488;-82
2021/01/15 08:24:22;;;;;;;43.42;22.35;;;0.80;99.90;;;1.46;86.15;101678.97;5034866;28;20026;-82
2021/01/15 08:26:53;;;;;;;44.58;22.33;;;0.70;99.90;;;1.46;86.09;101681.72;5023673;28;20025;-81
2021/01/15 08:29:28;;;;;;;43.78;21.80;;;0.70;99.90;;;1.54;86.17;101677.63;5028679;28;20028;-84
2021/01/15 08:31:59;;;;;;;42.88;22.20;;;0.80;99.90;;;1.51;86.23;101686.41;5038930;28;20132;-83
2021/01/15 08:34:35;;;;;;;42.92;21.58;;;0.70;99.90;;;1.55;86.44;101682.00;5022724;28;20041;-83
2021/01/15 08:37:04;;;;;;;;;;;0.70;99.90;;;1.57;86.20;101688.88;5033918;28;20095;-81
2021/01/15 08:39:49;;;;;;;42.08;19.92;;;0.80;99.90;;;1.61;86.12;101693.88;5033631;28;19909;-83
2021/01/15 08:42:16;;;;;;;39.40;19.77;;;0.80;99.90;;;1.63;86.08;101699.94;5033868;28;20038;-81
2021/01/15 08:44:49;;;;;;;37.78;20.40;;;0.80;99.90;;;1.62;85.83;101706.53;5016767;28;20124;-83
2021/01/15 08:47:20;;;;;;;40.75;20.70;;;0.80;99.90;;;1.54;86.32;101703.19;5028699;28;20029;-81
2021/01/15 08:50:06;;;;;;;37.70;20.10;;;0.80;99.90;;;1.54;86.41;101710.66;5017131;28;20029;-80
2021/01/15 08:52:33;;;;;;;40.88;19.45;;;0.80;99.90;;;1.52;86.11;101710.91;5016244;28;20056;-81
2021/01/15 08:55:04;;;;;;;39.10;19.98;;;0.80;99.90;;;1.61;85.90;101718.66;5033789;28;20025;-80
2021/01/15 08:57:31;;;;;;;42.00;21.30;;;0.80;99.90;;;1.63;86.00;101713.69;5015872;28;20441;-83
2021/01/15 09:00:13;;;;;;;38.33;19.75;;;0.80;99.90;;;1.66;86.04;101729.66;5017645;28;20508;-82
2021/01/15 09:02:42;;;;;;;39.40;20.42;;;0.90;99.90;;;1.67;85.75;101729.38;5016514;28;20362;-81
2021/01/15 09:05:14;;;;;;;38.35;20.88;;;0.80;99.90;;;1.68;86.05;101735.72;5016716;28;20033;-81
2021/01/15 09:07:47;;;;;;;39.00;19.08;;;0.90;99.90;;;1.69;85.68;101748.41;5016730;28;20532;-81
2021/01/15 09:10:18;;;;;;;42.67;21.48;;;0.90;99.90;;;1.77;85.93;101745.09;5016416;28;20120;-81
2021/01/15 09:12:49;;;;;;;40.45;20.70;;;0.90;99.90;;;1.81;85.25;101749.81;5033929;28;20203;-83
2021/01/15 09:15:22;;;;;;;37.60;20.27;;;1.00;99.90;;;1.81;84.97;101751.72;5017452;28;20124;-82
2021/01/15 09:17:58;;;;;;;40.17;20.77;;;1.00;99.90;;;1.81;85.74;101762.75;5024587;28;20048;-81
2021/01/15 09:20:26;;;;;;;35.28;19.63;;;1.00;99.90;;;1.82;85.33;101762.47;5034587;28;20037;-83
2021/01/15 09:22:53;;;;;;;44.40;21.33;;;1.00;99.90;;;1.78;85.64;101764.13;5016909;28;20405;-82
2021/01/15 09:25:19;;;;;;;40.55;20.10;;;1.00;99.90;;;1.83;85.04;101771.59;5039444;28;20025;-82
2021/01/15 09:27:46;;;;;;;44.35;20.20;;;1.10;99.90;;;1.82;84.82;101780.94;5036751;28;20406;-81
2021/01/15 09:30:15;;;;;;;39.72;20.25;;;1.00;99.90;;;1.84;85.33;101787.00;5021597;28;20323;-81
2021/01/15 09:32:46;;;;;;;40.33;20.67;;;1.10;99.90;;;1.85;85.07;101791.41;5017942;28;20132;-82
2021/01/15 09:35:18;;;;;;;41.70;20.45;;;1.10;99.90;;;1.86;85.18;101793.88;5035644;28;20052;-83
2021/01/15 09:37:45;;;;;;;41.40;19.30;;;1.10;99.90;;;1.93;84.75;101793.63;5022462;28;20037;-83
2021/01/15 09:40:11;;;;;;;37.90;19.52;;;1.10;99.90;;;1.90;84.79;101796.91;5016469;28;20076;-81
2021/01/15 09:42:38;;;;;;;34.85;18.15;;;1.10;99.90;;;1.94;84.77;101801.63;5016611;28;20107;-80
2021/01/15 09:45:06;;;;;;;38.67;18.88;;;1.20;99.90;;;1.98;84.87;101793.63;5018562;28;20037;-81
2021/01/15 09:47:34;;;;;;;39.90;19.58;;;1.20;99.90;;;2.00;84.48;101799.69;5038343;28;20036;-85
2021/01/15 09:50:00;;;;;;;37.75;19.75;;;1.20;99.90;;;2.05;84.01;101803.31;5020153;28;20025;-82
2021/01/15 09:52:26;;;;;;;36.38;18.48;;;1.30;99.90;;;2.06;83.42;101804.09;5037716;28;20473;-84
2021/01/15 09:54:51;;;;;;;33.92;18.70;;;1.30;99.90;;;2.07;83.20;101801.09;5019978;28;20029;-82
2021/01/15 09:57:17;;;;;;;38.15;18.83;;;1.30;99.90;;;2.18;83.06;101809.38;5019858;28;20033;-83
2021/01/15 09:59:43;;;;;;;34.70;17.25;;;1.40;99.90;;;2.25;82.85;101805.22;5021069;28;20036;-84
2021/01/15 10:02:09;;;;;;;31.30;17.08;;;1.40;99.90;;;2.35;83.13;101810.75;5019895;28;20393;-82
2021/01/15 10:04:35;;;;;;;36.83;17.08;;;1.50;99.90;;;2.38;82.14;101807.44;5037522;28;20030;-80
2021/01/15 10:07:00;;;;;;;35.08;18.20;;;1.50;99.90;;;2.39;82.10;101806.34;5019520;28;20124;-81
2021/01/15 10:09:27;;;;;;;33.72;18.42;;;1.60;99.90;;;2.47;81.88;101810.50;5019568;28;20037;-83
2021/01/15 10:11:53;;;;;;;33.97;17.10;;;1.60;99.90;;;2.42;81.12;101810.47;5022947;28;20084;-84
2021/01/15 10:14:19;;;;;;;38.20;18.83;;;1.60;99.90;;;2.35;81.58;101812.69;5019133;28;20385;-83
2021/01/15 10:16:49;;;;;;;33.10;16.92;;;1.60;99.90;;;2.31;81.30;101817.91;5039604;28;20053;-84
2021/01/15 10:19:18;;;;;;;36.75;18.30;;;1.60;99.90;;;2.36;81.36;101806.06;5024365;28;20033;-83
2021/01/15 10:21:45;;;;;;;42.55;17.00;;;1.50;99.90;;;2.46;81.07;101817.94;5019011;28;20097;-82
2021/01/15 10:24:13;;;;;;;36.70;17.92;;;1.50;99.90;;;2.50;80.96;101816.28;5019524;28;20562;-80
2021/01/15 10:26:41;;;;;;;31.58;16.40;;;1.60;99.90;;;2.51;80.92;101817.09;5036902;28;20042;-81
2021/01/15 10:29:12;;;;;;;31.52;16.90;;;1.70;99.90;;;2.58;80.48;101817.66;5019022;28;20087;-82
2021/01/15 10:31:52;;;;;;;36.95;17.05;;;1.70;99.90;;;2.55;80.74;101815.44;5018866;28;20037;-82
2021/01/15 10:34:18;;;;;;;31.67;16.80;;;1.70;99.90;;;2.57;80.85;101811.28;5036527;28;20030;-82